sensor_id;sensor_type;location;lat;lon;timestamp;P1;durP1;ratioP1;P2;durP2;ratioP2
69594;SDS011;56800;52.142;5.364;2022-07-29T00:01:43;4.20;;;1.73;;
69594;SDS011;56800;52.142;5.364;2022-07-29T00:04:10;5.05;;;2.22;;
69594;SDS011;56800;52.142;5.364;2022-07-29T00:06:38;3.20;;;1.83;;
69594;SDS011;56800;52.142;5.364;2022-07-29T00:09:04;5.28;;;1.90;;
69594;SDS011;56800;52.142;5.364;2022-07-29T00:11:31;5.83;;;1.90;;
69594;SDS011;56800;52.142;5.364;2022-07-29T00:13:58;6.00;;;1.75;;
69594;SDS011;56800;52.142;5.364;2022-07-29T00:16:25;5.28;;;1.77;;
69594;SDS011;56800;52.142;5.364;2022-07-29T00:18:52;4.95;;;1.80;;
69594;SDS011;56800;52.142;5.364;2022-07-29T00:21:18;6.07;;;2.03;;
69594;SDS011;56800;52.142;5.364;2022-07-29T00:23:45;6.30;;;1.97;;
69594;SDS011;56800;52.142;5.364;2022-07-29T00:26:12;4.30;;;1.70;;
69594;SDS011;56800;52.142;5.364;2022-07-29T00:28:38;2.92;;;1.42;;
69594;SDS011;56800;52.142;5.364;2022-07-29T00:31:05;6.03;;;2.00;;
69594;SDS011;56800;52.142;5.364;2022-07-29T00:33:32;3.70;;;1.60;;
69594;SDS011;56800;52.142;5.364;2022-07-29T00:35:58;4.60;;;1.80;;
69594;SDS011;56800;52.142;5.364;2022-07-29T00:38:25;5.28;;;1.70;;
69594;SDS011;56800;52.142;5.364;2022-07-29T00:40:52;8.18;;;1.67;;
69594;SDS011;56800;52.142;5.364;2022-07-29T00:43:19;3.78;;;1.50;;
69594;SDS011;56800;52.142;5.364;2022-07-29T00:45:45;2.88;;;1.70;;
69594;SDS011;56800;52.142;5.364;2022-07-29T00:48:12;6.00;;;1.80;;
69594;SDS011;56800;52.142;5.364;2022-07-29T00:50:40;3.80;;;1.98;;
69594;SDS011;56800;52.142;5.364;2022-07-29T00:53:06;4.97;;;2.00;;
69594;SDS011;56800;52.142;5.364;2022-07-29T00:55:34;4.30;;;1.88;;
69594;SDS011;56800;52.142;5.364;2022-07-29T00:58:01;3.80;;;2.03;;
69594;SDS011;56800;52.142;5.364;2022-07-29T01:00:29;3.70;;;1.43;;
69594;SDS011;56800;52.142;5.364;2022-07-29T01:02:56;3.75;;;1.75;;
69594;SDS011;56800;52.142;5.364;2022-07-29T01:05:23;8.02;;;1.95;;
69594;SDS011;56800;52.142;5.364;2022-07-29T01:08:13;8.07;;;1.95;;
69594;SDS011;56800;52.142;5.364;2022-07-29T01:10:41;4.60;;;1.90;;
69594;SDS011;56800;52.142;5.364;2022-07-29T01:13:09;4.03;;;2.00;;
69594;SDS011;56800;52.142;5.364;2022-07-29T01:15:41;6.15;;;2.38;;
69594;SDS011;56800;52.142;5.364;2022-07-29T01:18:22;6.72;;;2.15;;
69594;SDS011;56800;52.142;5.364;2022-07-29T01:21:14;6.65;;;1.98;;
69594;SDS011;56800;52.142;5.364;2022-07-29T01:27:14;5.53;;;1.73;;
69594;SDS011;56800;52.142;5.364;2022-07-29T01:29:50;5.15;;;2.00;;
69594;SDS011;56800;52.142;5.364;2022-07-29T01:32:24;4.50;;;1.98;;
69594;SDS011;56800;52.142;5.364;2022-07-29T01:35:05;5.15;;;1.90;;
69594;SDS011;56800;52.142;5.364;2022-07-29T01:40:12;5.23;;;2.00;;
69594;SDS011;56800;52.142;5.364;2022-07-29T01:43:51;4.97;;;1.85;;
69594;SDS011;56800;52.142;5.364;2022-07-29T01:46:00;4.72;;;2.10;;
69594;SDS011;56800;52.142;5.364;2022-07-29T01:48:31;4.53;;;1.77;;
69594;SDS011;56800;52.142;5.364;2022-07-29T01:51:07;5.50;;;1.95;;
69594;SDS011;56800;52.142;5.364;2022-07-29T01:53:44;4.67;;;1.50;;
69594;SDS011;56800;52.142;5.364;2022-07-29T01:56:25;7.43;;;2.03;;
69594;SDS011;56800;52.142;5.364;2022-07-29T01:58:57;3.97;;;1.80;;
69594;SDS011;56800;52.142;5.364;2022-07-29T02:01:24;4.43;;;2.05;;
69594;SDS011;56800;52.142;5.364;2022-07-29T02:03:53;6.47;;;2.03;;
69594;SDS011;56800;52.142;5.364;2022-07-29T02:06:22;7.20;;;1.97;;
69594;SDS011;56800;52.142;5.364;2022-07-29T02:08:51;4.65;;;2.10;;
69594;SDS011;56800;52.142;5.364;2022-07-29T02:11:19;5.65;;;1.85;;
69594;SDS011;56800;52.142;5.364;2022-07-29T02:13:46;6.28;;;1.77;;
69594;SDS011;56800;52.142;5.364;2022-07-29T02:16:15;3.70;;;1.90;;
69594;SDS011;56800;52.142;5.364;2022-07-29T02:18:45;3.67;;;2.00;;
69594;SDS011;56800;52.142;5.364;2022-07-29T02:21:13;5.43;;;1.85;;
69594;SDS011;56800;52.142;5.364;2022-07-29T02:23:45;5.75;;;2.20;;
69594;SDS011;56800;52.142;5.364;2022-07-29T02:26:17;6.35;;;2.22;;
69594;SDS011;56800;52.142;5.364;2022-07-29T02:28:45;4.85;;;2.10;;
69594;SDS011;56800;52.142;5.364;2022-07-29T02:31:13;3.17;;;1.73;;
69594;SDS011;56800;52.142;5.364;2022-07-29T02:33:42;4.07;;;2.10;;
69594;SDS011;56800;52.142;5.364;2022-07-29T02:36:09;4.35;;;1.88;;
69594;SDS011;56800;52.142;5.364;2022-07-29T02:38:37;5.00;;;1.52;;
69594;SDS011;56800;52.142;5.364;2022-07-29T02:41:23;5.40;;;1.92;;
69594;SDS011;56800;52.142;5.364;2022-07-29T02:43:57;6.43;;;2.37;;
69594;SDS011;56800;52.142;5.364;2022-07-29T02:46:32;3.90;;;1.95;;
69594;SDS011;56800;52.142;5.364;2022-07-29T02:49:04;3.97;;;2.22;;
69594;SDS011;56800;52.142;5.364;2022-07-29T02:51:55;6.80;;;2.00;;
69594;SDS011;56800;52.142;5.364;2022-07-29T02:57:36;4.63;;;1.67;;
69594;SDS011;56800;52.142;5.364;2022-07-29T03:00:21;3.70;;;2.13;;
69594;SDS011;56800;52.142;5.364;2022-07-29T03:02:50;6.28;;;1.90;;
69594;SDS011;56800;52.142;5.364;2022-07-29T03:05:20;4.75;;;1.70;;
69594;SDS011;56800;52.142;5.364;2022-07-29T03:07:49;7.30;;;2.20;;
69594;SDS011;56800;52.142;5.364;2022-07-29T03:10:20;5.30;;;2.00;;
69594;SDS011;56800;52.142;5.364;2022-07-29T03:12:47;4.65;;;1.60;;
69594;SDS011;56800;52.142;5.364;2022-07-29T03:15:14;3.55;;;1.80;;
69594;SDS011;56800;52.142;5.364;2022-07-29T03:17:42;4.70;;;1.70;;
69594;SDS011;56800;52.142;5.364;2022-07-29T03:20:10;5.70;;;2.25;;
69594;SDS011;56800;52.142;5.364;2022-07-29T03:22:40;5.10;;;1.93;;
69594;SDS011;56800;52.142;5.364;2022-07-29T03:25:13;5.68;;;1.60;;
69594;SDS011;56800;52.142;5.364;2022-07-29T03:27:42;5.20;;;2.05;;
69594;SDS011;56800;52.142;5.364;2022-07-29T03:30:10;5.88;;;1.80;;
69594;SDS011;56800;52.142;5.364;2022-07-29T03:32:43;3.30;;;1.63;;
69594;SDS011;56800;52.142;5.364;2022-07-29T03:35:10;3.83;;;2.00;;
69594;SDS011;56800;52.142;5.364;2022-07-29T03:37:36;5.57;;;1.65;;
69594;SDS011;56800;52.142;5.364;2022-07-29T03:40:05;6.35;;;2.15;;
69594;SDS011;56800;52.142;5.364;2022-07-29T03:42:35;4.32;;;1.83;;
69594;SDS011;56800;52.142;5.364;2022-07-29T03:45:06;5.47;;;2.05;;
69594;SDS011;56800;52.142;5.364;2022-07-29T03:47:39;4.90;;;2.17;;
69594;SDS011;56800;52.142;5.364;2022-07-29T03:50:16;4.03;;;1.95;;
69594;SDS011;56800;52.142;5.364;2022-07-29T03:52:45;3.65;;;1.63;;
69594;SDS011;56800;52.142;5.364;2022-07-29T03:55:13;7.43;;;2.13;;
69594;SDS011;56800;52.142;5.364;2022-07-29T03:57:41;4.15;;;1.92;;
69594;SDS011;56800;52.142;5.364;2022-07-29T04:00:09;5.90;;;2.20;;
69594;SDS011;56800;52.142;5.364;2022-07-29T04:02:36;6.80;;;2.03;;
69594;SDS011;56800;52.142;5.364;2022-07-29T04:05:04;7.35;;;1.90;;
69594;SDS011;56800;52.142;5.364;2022-07-29T04:07:31;5.57;;;2.00;;
69594;SDS011;56800;52.142;5.364;2022-07-29T04:09:58;7.35;;;2.00;;
69594;SDS011;56800;52.142;5.364;2022-07-29T04:12:24;4.37;;;1.90;;
69594;SDS011;56800;52.142;5.364;2022-07-29T04:14:51;5.65;;;2.00;;
69594;SDS011;56800;52.142;5.364;2022-07-29T04:17:17;8.20;;;1.88;;
69594;SDS011;56800;52.142;5.364;2022-07-29T04:19:44;3.35;;;2.00;;
69594;SDS011;56800;52.142;5.364;2022-07-29T04:22:11;5.45;;;1.90;;
69594;SDS011;56800;52.142;5.364;2022-07-29T04:24:37;4.60;;;1.90;;
69594;SDS011;56800;52.142;5.364;2022-07-29T04:27:09;4.82;;;2.15;;
69594;SDS011;56800;52.142;5.364;2022-07-29T04:29:36;4.65;;;1.90;;
69594;SDS011;56800;52.142;5.364;2022-07-29T04:32:22;6.10;;;2.15;;
69594;SDS011;56800;52.142;5.364;2022-07-29T04:34:49;6.85;;;1.85;;
69594;SDS011;56800;52.142;5.364;2022-07-29T04:37:15;4.63;;;2.13;;
69594;SDS011;56800;52.142;5.364;2022-07-29T04:39:42;6.30;;;2.60;;
69594;SDS011;56800;52.142;5.364;2022-07-29T04:42:09;5.18;;;2.13;;
69594;SDS011;56800;52.142;5.364;2022-07-29T04:44:35;6.07;;;1.80;;
69594;SDS011;56800;52.142;5.364;2022-07-29T04:47:07;7.25;;;2.05;;
69594;SDS011;56800;52.142;5.364;2022-07-29T04:49:37;4.87;;;2.10;;
69594;SDS011;56800;52.142;5.364;2022-07-29T04:52:04;5.35;;;2.33;;
69594;SDS011;56800;52.142;5.364;2022-07-29T04:54:31;5.80;;;1.75;;
69594;SDS011;56800;52.142;5.364;2022-07-29T04:56:59;4.13;;;1.98;;
69594;SDS011;56800;52.142;5.364;2022-07-29T04:59:25;8.15;;;1.88;;
69594;SDS011;56800;52.142;5.364;2022-07-29T05:01:52;5.87;;;2.40;;
69594;SDS011;56800;52.142;5.364;2022-07-29T05:04:19;8.50;;;2.30;;
69594;SDS011;56800;52.142;5.364;2022-07-29T05:06:46;6.07;;;2.22;;
69594;SDS011;56800;52.142;5.364;2022-07-29T05:09:13;4.80;;;2.10;;
69594;SDS011;56800;52.142;5.364;2022-07-29T05:11:40;5.78;;;2.20;;
69594;SDS011;56800;52.142;5.364;2022-07-29T05:14:06;5.60;;;2.73;;
69594;SDS011;56800;52.142;5.364;2022-07-29T05:16:33;6.40;;;2.22;;
69594;SDS011;56800;52.142;5.364;2022-07-29T05:19:00;4.88;;;2.30;;
69594;SDS011;56800;52.142;5.364;2022-07-29T05:21:27;5.53;;;2.38;;
69594;SDS011;56800;52.142;5.364;2022-07-29T05:23:53;3.63;;;1.95;;
69594;SDS011;56800;52.142;5.364;2022-07-29T05:26:20;3.83;;;2.20;;
69594;SDS011;56800;52.142;5.364;2022-07-29T05:28:47;5.88;;;1.95;;
69594;SDS011;56800;52.142;5.364;2022-07-29T05:31:14;4.45;;;2.17;;
69594;SDS011;56800;52.142;5.364;2022-07-29T05:33:41;5.38;;;2.40;;
69594;SDS011;56800;52.142;5.364;2022-07-29T05:36:08;4.30;;;1.92;;
69594;SDS011;56800;52.142;5.364;2022-07-29T05:38:35;6.07;;;2.40;;
69594;SDS011;56800;52.142;5.364;2022-07-29T05:41:02;6.13;;;2.78;;
69594;SDS011;56800;52.142;5.364;2022-07-29T05:43:30;4.75;;;2.55;;
69594;SDS011;56800;52.142;5.364;2022-07-29T05:45:57;5.15;;;2.60;;
69594;SDS011;56800;52.142;5.364;2022-07-29T05:48:25;5.72;;;2.35;;
69594;SDS011;56800;52.142;5.364;2022-07-29T05:50:51;3.97;;;2.03;;
69594;SDS011;56800;52.142;5.364;2022-07-29T05:53:18;6.88;;;2.38;;
69594;SDS011;56800;52.142;5.364;2022-07-29T05:55:46;4.40;;;2.70;;
69594;SDS011;56800;52.142;5.364;2022-07-29T05:58:13;4.20;;;2.10;;
69594;SDS011;56800;52.142;5.364;2022-07-29T06:00:40;5.22;;;2.40;;
69594;SDS011;56800;52.142;5.364;2022-07-29T06:03:07;5.47;;;2.20;;
69594;SDS011;56800;52.142;5.364;2022-07-29T06:05:34;5.38;;;2.55;;
69594;SDS011;56800;52.142;5.364;2022-07-29T06:08:00;5.93;;;2.80;;
69594;SDS011;56800;52.142;5.364;2022-07-29T06:10:28;6.68;;;2.72;;
69594;SDS011;56800;52.142;5.364;2022-07-29T06:12:55;5.68;;;2.67;;
69594;SDS011;56800;52.142;5.364;2022-07-29T06:15:22;5.80;;;2.80;;
69594;SDS011;56800;52.142;5.364;2022-07-29T06:17:49;8.15;;;2.80;;
69594;SDS011;56800;52.142;5.364;2022-07-29T06:20:26;10.70;;;2.75;;
69594;SDS011;56800;52.142;5.364;2022-07-29T06:22:57;8.10;;;2.88;;
69594;SDS011;56800;52.142;5.364;2022-07-29T06:25:24;5.68;;;2.40;;
69594;SDS011;56800;52.142;5.364;2022-07-29T06:27:51;6.20;;;2.97;;
69594;SDS011;56800;52.142;5.364;2022-07-29T06:30:18;7.00;;;2.63;;
69594;SDS011;56800;52.142;5.364;2022-07-29T06:32:44;5.32;;;2.80;;
69594;SDS011;56800;52.142;5.364;2022-07-29T06:35:11;5.15;;;2.40;;
69594;SDS011;56800;52.142;5.364;2022-07-29T06:37:58;5.00;;;2.47;;
69594;SDS011;56800;52.142;5.364;2022-07-29T06:40:25;5.87;;;2.70;;
69594;SDS011;56800;52.142;5.364;2022-07-29T06:43:10;4.90;;;2.53;;
69594;SDS011;56800;52.142;5.364;2022-07-29T06:45:37;6.30;;;2.50;;
69594;SDS011;56800;52.142;5.364;2022-07-29T06:48:07;6.65;;;2.30;;
69594;SDS011;56800;52.142;5.364;2022-07-29T06:50:34;4.97;;;2.45;;
69594;SDS011;56800;52.142;5.364;2022-07-29T06:53:01;8.47;;;3.10;;
69594;SDS011;56800;52.142;5.364;2022-07-29T06:55:27;7.53;;;2.38;;
69594;SDS011;56800;52.142;5.364;2022-07-29T06:57:54;4.85;;;2.33;;
69594;SDS011;56800;52.142;5.364;2022-07-29T07:00:21;5.45;;;2.35;;
69594;SDS011;56800;52.142;5.364;2022-07-29T07:02:47;8.05;;;2.47;;
69594;SDS011;56800;52.142;5.364;2022-07-29T07:05:14;4.50;;;2.33;;
69594;SDS011;56800;52.142;5.364;2022-07-29T07:07:41;6.68;;;2.53;;
69594;SDS011;56800;52.142;5.364;2022-07-29T07:10:07;9.68;;;2.38;;
69594;SDS011;56800;52.142;5.364;2022-07-29T07:12:34;5.45;;;2.15;;
69594;SDS011;56800;52.142;5.364;2022-07-29T07:15:01;6.47;;;2.97;;
69594;SDS011;56800;52.142;5.364;2022-07-29T07:17:28;4.83;;;2.23;;
69594;SDS011;56800;52.142;5.364;2022-07-29T07:19:54;6.82;;;2.33;;
69594;SDS011;56800;52.142;5.364;2022-07-29T07:22:21;8.73;;;2.95;;
69594;SDS011;56800;52.142;5.364;2022-07-29T07:24:48;5.47;;;2.72;;
69594;SDS011;56800;52.142;5.364;2022-07-29T07:27:14;8.07;;;2.75;;
69594;SDS011;56800;52.142;5.364;2022-07-29T07:29:42;7.87;;;3.13;;
69594;SDS011;56800;52.142;5.364;2022-07-29T07:32:09;5.88;;;2.72;;
69594;SDS011;56800;52.142;5.364;2022-07-29T07:34:36;5.00;;;2.65;;
69594;SDS011;56800;52.142;5.364;2022-07-29T07:37:04;6.55;;;3.13;;
69594;SDS011;56800;52.142;5.364;2022-07-29T07:39:31;7.82;;;3.00;;
69594;SDS011;56800;52.142;5.364;2022-07-29T07:41:58;7.53;;;2.53;;
69594;SDS011;56800;52.142;5.364;2022-07-29T07:44:24;10.07;;;3.10;;
69594;SDS011;56800;52.142;5.364;2022-07-29T07:46:51;7.32;;;2.45;;
69594;SDS011;56800;52.142;5.364;2022-07-29T07:49:19;5.78;;;2.45;;
69594;SDS011;56800;52.142;5.364;2022-07-29T07:51:46;11.32;;;2.90;;
69594;SDS011;56800;52.142;5.364;2022-07-29T07:54:16;6.03;;;2.30;;
69594;SDS011;56800;52.142;5.364;2022-07-29T07:56:46;6.45;;;2.58;;
69594;SDS011;56800;52.142;5.364;2022-07-29T07:59:18;9.82;;;2.58;;
69594;SDS011;56800;52.142;5.364;2022-07-29T08:01:44;5.22;;;2.97;;
69594;SDS011;56800;52.142;5.364;2022-07-29T08:04:20;5.75;;;2.42;;
69594;SDS011;56800;52.142;5.364;2022-07-29T08:06:53;10.60;;;2.60;;
69594;SDS011;56800;52.142;5.364;2022-07-29T08:09:21;7.00;;;2.55;;
69594;SDS011;56800;52.142;5.364;2022-07-29T08:11:54;7.22;;;2.47;;
69594;SDS011;56800;52.142;5.364;2022-07-29T08:14:22;5.43;;;2.10;;
69594;SDS011;56800;52.142;5.364;2022-07-29T08:16:48;6.30;;;2.97;;
69594;SDS011;56800;52.142;5.364;2022-07-29T08:19:15;6.70;;;2.83;;
69594;SDS011;56800;52.142;5.364;2022-07-29T08:21:42;6.32;;;2.63;;
69594;SDS011;56800;52.142;5.364;2022-07-29T08:24:08;7.38;;;2.47;;
69594;SDS011;56800;52.142;5.364;2022-07-29T08:26:54;6.53;;;3.20;;
69594;SDS011;56800;52.142;5.364;2022-07-29T08:29:20;8.45;;;2.90;;
69594;SDS011;56800;52.142;5.364;2022-07-29T08:31:47;8.07;;;3.00;;
69594;SDS011;56800;52.142;5.364;2022-07-29T08:34:14;5.90;;;2.83;;
69594;SDS011;56800;52.142;5.364;2022-07-29T08:36:40;15.18;;;2.72;;
69594;SDS011;56800;52.142;5.364;2022-07-29T08:39:07;7.22;;;3.20;;
69594;SDS011;56800;52.142;5.364;2022-07-29T08:41:34;10.50;;;3.30;;
69594;SDS011;56800;52.142;5.364;2022-07-29T08:44:01;8.60;;;3.00;;
69594;SDS011;56800;52.142;5.364;2022-07-29T08:46:28;10.27;;;3.40;;
69594;SDS011;56800;52.142;5.364;2022-07-29T08:48:55;6.90;;;3.08;;
69594;SDS011;56800;52.142;5.364;2022-07-29T08:51:21;6.90;;;3.63;;
69594;SDS011;56800;52.142;5.364;2022-07-29T08:53:50;8.68;;;3.10;;
69594;SDS011;56800;52.142;5.364;2022-07-29T08:56:17;8.98;;;3.40;;
69594;SDS011;56800;52.142;5.364;2022-07-29T08:58:46;8.20;;;3.10;;
69594;SDS011;56800;52.142;5.364;2022-07-29T09:01:20;5.65;;;2.90;;
69594;SDS011;56800;52.142;5.364;2022-07-29T09:04:02;8.07;;;3.47;;
69594;SDS011;56800;52.142;5.364;2022-07-29T09:06:31;4.32;;;2.55;;
69594;SDS011;56800;52.142;5.364;2022-07-29T09:09:00;7.72;;;2.88;;
69594;SDS011;56800;52.142;5.364;2022-07-29T09:11:27;8.40;;;3.20;;
69594;SDS011;56800;52.142;5.364;2022-07-29T09:13:54;7.63;;;3.05;;
69594;SDS011;56800;52.142;5.364;2022-07-29T09:16:21;6.90;;;2.95;;
69594;SDS011;56800;52.142;5.364;2022-07-29T09:19:18;11.15;;;3.40;;
69594;SDS011;56800;52.142;5.364;2022-07-29T09:21:46;8.85;;;3.47;;
69594;SDS011;56800;52.142;5.364;2022-07-29T09:24:26;9.25;;;3.75;;
69594;SDS011;56800;52.142;5.364;2022-07-29T09:27:01;6.60;;;3.30;;
69594;SDS011;56800;52.142;5.364;2022-07-29T09:29:27;8.30;;;3.45;;
69594;SDS011;56800;52.142;5.364;2022-07-29T09:32:00;10.00;;;3.47;;
69594;SDS011;56800;52.142;5.364;2022-07-29T09:34:33;6.30;;;3.40;;
69594;SDS011;56800;52.142;5.364;2022-07-29T09:37:00;9.27;;;3.47;;
69594;SDS011;56800;52.142;5.364;2022-07-29T09:41:55;7.40;;;3.25;;
69594;SDS011;56800;52.142;5.364;2022-07-29T09:44:24;10.55;;;3.45;;
69594;SDS011;56800;52.142;5.364;2022-07-29T09:47:02;9.98;;;3.70;;
69594;SDS011;56800;52.142;5.364;2022-07-29T09:49:34;8.73;;;3.38;;
69594;SDS011;56800;52.142;5.364;2022-07-29T09:52:06;12.30;;;4.10;;
69594;SDS011;56800;52.142;5.364;2022-07-29T09:54:50;9.48;;;3.50;;
69594;SDS011;56800;52.142;5.364;2022-07-29T09:57:48;14.70;;;3.40;;
69594;SDS011;56800;52.142;5.364;2022-07-29T10:00:49;9.75;;;2.95;;
69594;SDS011;56800;52.142;5.364;2022-07-29T10:03:20;8.50;;;3.45;;
69594;SDS011;56800;52.142;5.364;2022-07-29T10:06:08;6.57;;;3.30;;
69594;SDS011;56800;52.142;5.364;2022-07-29T10:08:43;8.52;;;3.75;;
69594;SDS011;56800;52.142;5.364;2022-07-29T10:11:38;8.27;;;4.25;;
69594;SDS011;56800;52.142;5.364;2022-07-29T10:19:42;9.77;;;3.40;;
69594;SDS011;56800;52.142;5.364;2022-07-29T10:23:42;11.88;;;3.40;;
69594;SDS011;56800;52.142;5.364;2022-07-29T10:27:49;12.35;;;3.38;;
69594;SDS011;56800;52.142;5.364;2022-07-29T10:31:49;6.90;;;3.08;;
69594;SDS011;56800;52.142;5.364;2022-07-29T10:46:36;10.80;;;3.00;;
69594;SDS011;56800;52.142;5.364;2022-07-29T10:49:13;9.30;;;3.38;;
69594;SDS011;56800;52.142;5.364;2022-07-29T10:52:01;9.00;;;4.03;;
69594;SDS011;56800;52.142;5.364;2022-07-29T10:54:36;13.68;;;3.95;;
69594;SDS011;56800;52.142;5.364;2022-07-29T10:57:27;12.25;;;3.72;;
69594;SDS011;56800;52.142;5.364;2022-07-29T11:00:25;7.32;;;3.38;;
69594;SDS011;56800;52.142;5.364;2022-07-29T11:02:53;11.25;;;3.13;;
69594;SDS011;56800;52.142;5.364;2022-07-29T11:05:22;9.85;;;2.95;;
69594;SDS011;56800;52.142;5.364;2022-07-29T11:10:45;7.47;;;3.25;;
69594;SDS011;56800;52.142;5.364;2022-07-29T11:13:41;11.48;;;3.40;;
69594;SDS011;56800;52.142;5.364;2022-07-29T11:16:09;9.68;;;2.85;;
69594;SDS011;56800;52.142;5.364;2022-07-29T11:18:36;11.10;;;3.85;;
69594;SDS011;56800;52.142;5.364;2022-07-29T11:21:37;8.75;;;4.43;;
69594;SDS011;56800;52.142;5.364;2022-07-29T11:24:21;7.97;;;3.65;;
69594;SDS011;56800;52.142;5.364;2022-07-29T11:27:12;12.50;;;4.03;;
69594;SDS011;56800;52.142;5.364;2022-07-29T11:29:51;11.43;;;4.40;;
69594;SDS011;56800;52.142;5.364;2022-07-29T11:32:20;9.60;;;3.92;;
69594;SDS011;56800;52.142;5.364;2022-07-29T11:35:10;6.28;;;3.72;;
69594;SDS011;56800;52.142;5.364;2022-07-29T11:37:43;9.82;;;3.58;;
69594;SDS011;56800;52.142;5.364;2022-07-29T11:40:20;9.90;;;3.85;;
69594;SDS011;56800;52.142;5.364;2022-07-29T11:42:48;11.05;;;4.65;;
69594;SDS011;56800;52.142;5.364;2022-07-29T11:45:18;9.38;;;4.13;;
69594;SDS011;56800;52.142;5.364;2022-07-29T11:48:06;13.20;;;4.28;;
69594;SDS011;56800;52.142;5.364;2022-07-29T11:50:57;15.90;;;4.68;;
69594;SDS011;56800;52.142;5.364;2022-07-29T11:53:24;8.77;;;3.58;;
69594;SDS011;56800;52.142;5.364;2022-07-29T11:55:54;11.63;;;4.03;;
69594;SDS011;56800;52.142;5.364;2022-07-29T11:58:23;7.82;;;4.10;;
69594;SDS011;56800;52.142;5.364;2022-07-29T12:00:51;7.10;;;3.55;;
69594;SDS011;56800;52.142;5.364;2022-07-29T12:03:24;10.82;;;3.53;;
69594;SDS011;56800;52.142;5.364;2022-07-29T12:06:01;5.70;;;3.30;;
69594;SDS011;56800;52.142;5.364;2022-07-29T12:08:29;11.32;;;4.10;;
69594;SDS011;56800;52.142;5.364;2022-07-29T12:10:56;13.77;;;4.10;;
69594;SDS011;56800;52.142;5.364;2022-07-29T12:13:22;9.60;;;3.58;;
69594;SDS011;56800;52.142;5.364;2022-07-29T12:16:03;7.97;;;4.07;;
69594;SDS011;56800;52.142;5.364;2022-07-29T12:18:30;10.20;;;4.70;;
69594;SDS011;56800;52.142;5.364;2022-07-29T12:20:58;12.75;;;4.68;;
69594;SDS011;56800;52.142;5.364;2022-07-29T12:23:29;12.95;;;4.53;;
69594;SDS011;56800;52.142;5.364;2022-07-29T12:26:00;8.35;;;4.88;;
69594;SDS011;56800;52.142;5.364;2022-07-29T12:28:37;9.98;;;4.78;;
69594;SDS011;56800;52.142;5.364;2022-07-29T12:31:04;8.15;;;4.55;;
69594;SDS011;56800;52.142;5.364;2022-07-29T12:33:33;7.15;;;3.67;;
69594;SDS011;56800;52.142;5.364;2022-07-29T12:36:01;9.85;;;4.00;;
69594;SDS011;56800;52.142;5.364;2022-07-29T12:38:36;13.35;;;4.95;;
69594;SDS011;56800;52.142;5.364;2022-07-29T12:41:06;9.00;;;4.57;;
69594;SDS011;56800;52.142;5.364;2022-07-29T12:43:32;11.73;;;3.75;;
69594;SDS011;56800;52.142;5.364;2022-07-29T12:46:10;14.65;;;4.13;;
69594;SDS011;56800;52.142;5.364;2022-07-29T12:48:40;8.43;;;4.18;;
69594;SDS011;56800;52.142;5.364;2022-07-29T12:51:08;6.60;;;4.25;;
69594;SDS011;56800;52.142;5.364;2022-07-29T12:53:37;14.57;;;4.30;;
69594;SDS011;56800;52.142;5.364;2022-07-29T12:56:05;9.68;;;3.28;;
69594;SDS011;56800;52.142;5.364;2022-07-29T12:58:52;14.63;;;3.10;;
69594;SDS011;56800;52.142;5.364;2022-07-29T13:01:19;7.40;;;3.60;;
69594;SDS011;56800;52.142;5.364;2022-07-29T13:08:59;9.13;;;3.25;;
69594;SDS011;56800;52.142;5.364;2022-07-29T13:11:34;7.55;;;4.03;;
69594;SDS011;56800;52.142;5.364;2022-07-29T13:14:02;7.78;;;3.80;;
69594;SDS011;56800;52.142;5.364;2022-07-29T13:16:32;10.98;;;3.88;;
69594;SDS011;56800;52.142;5.364;2022-07-29T13:19:11;9.07;;;3.78;;
69594;SDS011;56800;52.142;5.364;2022-07-29T13:21:38;8.20;;;3.47;;
69594;SDS011;56800;52.142;5.364;2022-07-29T13:24:06;7.47;;;3.72;;
69594;SDS011;56800;52.142;5.364;2022-07-29T13:26:33;9.25;;;3.60;;
69594;SDS011;56800;52.142;5.364;2022-07-29T13:29:00;9.60;;;4.25;;
69594;SDS011;56800;52.142;5.364;2022-07-29T13:31:27;10.38;;;3.60;;
69594;SDS011;56800;52.142;5.364;2022-07-29T13:33:54;9.40;;;3.72;;
69594;SDS011;56800;52.142;5.364;2022-07-29T13:36:24;10.77;;;4.10;;
69594;SDS011;56800;52.142;5.364;2022-07-29T13:38:50;14.95;;;4.45;;
69594;SDS011;56800;52.142;5.364;2022-07-29T13:41:17;8.05;;;5.20;;
69594;SDS011;56800;52.142;5.364;2022-07-29T13:43:44;7.00;;;3.83;;
69594;SDS011;56800;52.142;5.364;2022-07-29T13:46:15;12.98;;;4.80;;
69594;SDS011;56800;52.142;5.364;2022-07-29T13:48:41;8.27;;;5.32;;
69594;SDS011;56800;52.142;5.364;2022-07-29T13:51:08;10.25;;;5.40;;
69594;SDS011;56800;52.142;5.364;2022-07-29T13:53:35;11.70;;;4.20;;
69594;SDS011;56800;52.142;5.364;2022-07-29T13:56:01;10.43;;;4.72;;
69594;SDS011;56800;52.142;5.364;2022-07-29T13:58:28;9.07;;;4.15;;
69594;SDS011;56800;52.142;5.364;2022-07-29T14:00:55;12.45;;;4.53;;
69594;SDS011;56800;52.142;5.364;2022-07-29T14:03:22;7.82;;;5.93;;
69594;SDS011;56800;52.142;5.364;2022-07-29T14:05:50;13.40;;;4.45;;
69594;SDS011;56800;52.142;5.364;2022-07-29T14:08:17;8.68;;;5.15;;
69594;SDS011;56800;52.142;5.364;2022-07-29T14:10:44;8.00;;;4.68;;
69594;SDS011;56800;52.142;5.364;2022-07-29T14:13:10;10.35;;;5.38;;
69594;SDS011;56800;52.142;5.364;2022-07-29T14:15:50;9.40;;;4.45;;
69594;SDS011;56800;52.142;5.364;2022-07-29T14:18:17;9.05;;;4.25;;
69594;SDS011;56800;52.142;5.364;2022-07-29T14:20:44;6.80;;;4.57;;
69594;SDS011;56800;52.142;5.364;2022-07-29T14:23:11;13.65;;;4.60;;
69594;SDS011;56800;52.142;5.364;2022-07-29T14:25:41;10.63;;;4.80;;
69594;SDS011;56800;52.142;5.364;2022-07-29T14:28:09;11.67;;;5.57;;
69594;SDS011;56800;52.142;5.364;2022-07-29T14:30:36;7.10;;;4.25;;
69594;SDS011;56800;52.142;5.364;2022-07-29T14:33:06;9.52;;;3.78;;
69594;SDS011;56800;52.142;5.364;2022-07-29T14:35:47;6.57;;;4.32;;
69594;SDS011;56800;52.142;5.364;2022-07-29T14:39:46;7.55;;;4.40;;
69594;SDS011;56800;52.142;5.364;2022-07-29T14:43:32;9.63;;;3.57;;
69594;SDS011;56800;52.142;5.364;2022-07-29T14:46:00;6.72;;;3.90;;
69594;SDS011;56800;52.142;5.364;2022-07-29T14:48:33;13.05;;;4.10;;
69594;SDS011;56800;52.142;5.364;2022-07-29T14:51:00;8.55;;;3.85;;
69594;SDS011;56800;52.142;5.364;2022-07-29T14:53:30;12.32;;;3.75;;
69594;SDS011;56800;52.142;5.364;2022-07-29T14:55:57;5.20;;;3.20;;
69594;SDS011;56800;52.142;5.364;2022-07-29T14:58:44;7.97;;;4.78;;
69594;SDS011;56800;52.142;5.364;2022-07-29T15:01:17;6.85;;;4.03;;
69594;SDS011;56800;52.142;5.364;2022-07-29T15:03:44;8.55;;;4.68;;
69594;SDS011;56800;52.142;5.364;2022-07-29T15:06:11;9.63;;;4.28;;
69594;SDS011;56800;52.142;5.364;2022-07-29T15:08:38;7.57;;;3.60;;
69594;SDS011;56800;52.142;5.364;2022-07-29T15:11:05;10.40;;;4.40;;
69594;SDS011;56800;52.142;5.364;2022-07-29T15:13:32;11.38;;;3.67;;
69594;SDS011;56800;52.142;5.364;2022-07-29T15:15:59;10.80;;;3.58;;
69594;SDS011;56800;52.142;5.364;2022-07-29T15:18:26;8.77;;;4.03;;
69594;SDS011;56800;52.142;5.364;2022-07-29T15:20:53;11.73;;;4.03;;
69594;SDS011;56800;52.142;5.364;2022-07-29T15:23:19;6.32;;;3.33;;
69594;SDS011;56800;52.142;5.364;2022-07-29T15:25:46;6.93;;;3.30;;
69594;SDS011;56800;52.142;5.364;2022-07-29T15:28:13;8.68;;;3.63;;
69594;SDS011;56800;52.142;5.364;2022-07-29T15:30:39;8.27;;;3.90;;
69594;SDS011;56800;52.142;5.364;2022-07-29T15:33:07;8.88;;;3.08;;
69594;SDS011;56800;52.142;5.364;2022-07-29T15:35:37;5.70;;;2.95;;
69594;SDS011;56800;52.142;5.364;2022-07-29T15:38:06;5.80;;;3.47;;
69594;SDS011;56800;52.142;5.364;2022-07-29T15:40:33;6.55;;;3.10;;
69594;SDS011;56800;52.142;5.364;2022-07-29T15:43:05;9.07;;;4.20;;
69594;SDS011;56800;52.142;5.364;2022-07-29T15:45:56;9.57;;;3.38;;
69594;SDS011;56800;52.142;5.364;2022-07-29T15:48:58;7.82;;;2.90;;
69594;SDS011;56800;52.142;5.364;2022-07-29T15:52:32;10.30;;;3.40;;